Time;durP1;ratioP1;P1;durP2;ratioP2;P2;SDS_P1;SDS_P2;PMS_P1;PMS_P2;Temp;Humidity;BMP_temperature;BMP_pressure;BME280_temperature;BME280_humidity;BME280_pressure;Samples;Min_cycle;Max_cycle;Signal;HPM_P1;HPM_P2
2023/10/14 00:01:12;;;;;;;24.87;23.57;;;22.50;99.90;;;;;;5011555;28;20443;-64
2023/10/14 00:03:42;;;;;;;26.73;24.97;;;22.50;99.90;;;;;;5011575;28;20529;-64
2023/10/14 00:06:11;;;;;;;27.30;25.40;;;22.50;99.90;;;;;;5015370;28;20451;-64
2023/10/14 00:08:47;;;;;;;24.50;23.13;;;22.50;99.90;;;;;;5015411;28;21012;-65
2023/10/14 00:11:14;;;;;;;23.57;22.13;;;22.50;99.90;;;;;;5015455;28;20448;-62
2023/10/14 00:13:43;;;;;;;24.43;22.93;;;22.50;99.90;;;;;;5015329;28;20450;-62
2023/10/14 00:16:22;;;;;;;23.30;21.80;;;22.50;99.90;;;;;;5015490;28;20441;-62
2023/10/14 00:18:49;;;;;;;25.27;23.57;;;22.50;99.90;;;;;;5015237;28;20462;-63
2023/10/14 00:21:16;;;;;;;25.63;24.20;;;22.50;99.90;;;;;;5015103;28;20453;-62
2023/10/14 00:23:43;;;;;;;24.80;23.40;;;22.50;99.90;;;;;;5015160;28;20876;-63
2023/10/14 00:26:16;;;;;;;26.20;24.67;;;22.50;99.90;;;;;;5015126;28;20445;-62
2023/10/14 00:28:45;;;;;;;23.33;22.10;;;22.50;99.90;;;;;;5015130;28;20481;-63
2023/10/14 00:31:13;;;;;;;25.37;23.60;;;22.50;99.90;;;;;;5014925;28;20840;-63
2023/10/14 00:33:41;;;;;;;26.13;24.63;;;22.40;99.90;;;;;;5015096;28;20434;-63
2023/10/14 00:36:14;;;;;;;24.40;23.20;;;22.40;99.90;;;;;;5015000;28;20553;-62
2023/10/14 00:38:44;;;;;;;25.17;23.57;;;22.40;99.90;;;;;;5015013;28;20465;-63
2023/10/14 00:41:11;;;;;;;24.07;22.73;;;22.40;99.90;;;;;;5014819;28;20446;-65
2023/10/14 00:43:40;;;;;;;25.63;24.20;;;22.40;99.90;;;;;;5014806;28;20565;-65
2023/10/14 00:46:16;;;;;;;23.50;22.20;;;22.40;99.90;;;;;;5014727;28;20477;-65
2023/10/14 00:48:46;;;;;;;24.70;23.13;;;22.40;99.90;;;;;;5014780;28;20454;-65
2023/10/14 00:51:14;;;;;;;24.20;22.30;;;22.40;99.90;;;;;;5014801;28;20442;-65
2023/10/14 00:53:51;;;;;;;24.70;23.13;;;22.40;99.90;;;;;;5014652;28;20446;-65
2023/10/14 00:56:27;;;;;;;24.03;22.83;;;22.40;99.90;;;;;;5014722;28;20449;-65
2023/10/14 00:58:58;;;;;;;25.80;23.70;;;22.40;99.90;;;;;;5014539;28;20484;-65
2023/10/14 01:01:31;;;;;;;25.00;23.70;;;22.30;99.90;;;;;;5014576;28;20442;-65
2023/10/14 01:04:09;;;;;;;25.47;24.03;;;22.30;99.90;;;;;;5014385;28;20465;-65
2023/10/14 01:06:53;;;;;;;25.20;23.30;;;22.30;99.90;;;;;;5006932;28;20446;-64
2023/10/14 01:09:20;;;;;;;24.10;22.53;;;22.40;99.90;;;;;;5014285;28;21026;-65
2023/10/14 01:11:47;;;;;;;25.67;24.27;;;22.40;99.90;;;;;;5014451;28;20488;-65
2023/10/14 01:14:16;;;;;;;24.87;23.27;;;22.40;99.90;;;;;;5014062;28;20469;-65
2023/10/14 01:16:47;;;;;;;24.70;23.10;;;22.40;99.90;;;;;;5014236;28;20445;-65
2023/10/14 01:19:20;;;;;;;24.90;23.60;;;22.40;99.90;;;;;;5014041;28;20461;-64
2023/10/14 01:21:51;;;;;;;24.10;22.47;;;22.30;99.90;;;;;;5014369;28;20470;-64
2023/10/14 01:24:21;;;;;;;24.00;22.53;;;22.30;99.90;;;;;;5013947;28;20798;-64
2023/10/14 01:27:01;;;;;;;24.83;23.50;;;22.30;99.90;;;;;;5014053;28;20478;-65
2023/10/14 01:29:31;;;;;;;23.40;22.20;;;22.30;99.90;;;;;;5014006;28;20844;-65
2023/10/14 01:32:24;;;;;;;24.20;23.00;;;22.30;99.90;;;;;;5014039;28;20443;-65
2023/10/14 01:34:55;;;;;;;24.00;22.63;;;22.30;99.90;;;;;;5008203;28;20500;-65
2023/10/14 01:37:26;;;;;;;22.80;21.50;;;22.20;99.90;;;;;;5013882;28;20449;-64
2023/10/14 01:40:07;;;;;;;23.17;21.93;;;22.20;99.90;;;;;;5013854;28;20462;-63
2023/10/14 01:42:34;;;;;;;23.53;22.43;;;22.30;99.90;;;;;;5005896;28;20840;-63
2023/10/14 01:45:04;;;;;;;22.37;21.13;;;22.20;99.90;;;;;;5013579;28;20465;-63
2023/10/14 01:47:32;;;;;;;25.43;24.13;;;22.20;99.90;;;;;;5013570;28;20857;-64
2023/10/14 01:50:00;;;;;;;23.40;21.80;;;22.20;99.90;;;;;;5013706;28;20461;-63
2023/10/14 01:52:27;;;;;;;23.20;22.03;;;22.20;99.90;;;;;;5013667;28;20453;-63
2023/10/14 01:54:56;;;;;;;22.80;21.40;;;22.20;99.90;;;;;;5013594;28;20442;-64
2023/10/14 01:57:24;;;;;;;21.43;20.43;;;22.20;99.90;;;;;;5013570;28;20933;-63
2023/10/14 01:59:51;;;;;;;21.87;20.77;;;22.20;99.90;;;;;;5013497;28;20493;-62
2023/10/14 02:02:20;;;;;;;20.90;19.83;;;22.10;99.90;;;;;;5013247;28;20481;-64
2023/10/14 02:04:55;;;;;;;19.43;18.63;;;22.10;99.90;;;;;;5013311;28;20446;-64
2023/10/14 02:07:26;;;;;;;20.13;19.33;;;22.00;99.90;;;;;;5013275;28;20483;-64
2023/10/14 02:09:55;;;;;;;19.40;18.63;;;22.00;99.90;;;;;;5005439;28;20557;-64
2023/10/14 02:12:24;;;;;;;19.17;18.47;;;22.00;99.90;;;;;;5011596;28;20954;-64
2023/10/14 02:14:57;;;;;;;18.00;17.30;;;21.90;99.90;;;;;;5011356;28;20529;-64
2023/10/14 02:17:24;;;;;;;19.63;18.70;;;21.90;99.90;;;;;;5008637;28;20451;-64
2023/10/14 02:19:52;;;;;;;19.63;18.83;;;21.90;99.90;;;;;;5013209;28;20548;-64
2023/10/14 02:22:22;;;;;;;19.43;18.63;;;21.90;99.90;;;;;;5013263;28;20878;-62
2023/10/14 02:24:49;;;;;;;17.83;17.13;;;21.90;99.90;;;;;;5013054;28;20504;-62
2023/10/14 02:27:16;;;;;;;17.83;17.23;;;21.80;99.90;;;;;;5008133;28;20515;-62
2023/10/14 02:29:46;;;;;;;18.20;17.60;;;21.80;99.90;;;;;;5013033;28;20470;-62
2023/10/14 02:32:14;;;;;;;18.30;17.60;;;21.80;99.90;;;;;;5012982;28;20442;-62
2023/10/14 02:34:44;;;;;;;18.70;18.07;;;21.80;99.90;;;;;;5012864;28;20446;-62
2023/10/14 02:37:13;;;;;;;18.30;17.50;;;21.80;99.90;;;;;;5008732;28;20479;-62
2023/10/14 02:39:43;;;;;;;18.40;17.80;;;21.80;99.90;;;;;;5000726;28;20532;-62
2023/10/14 02:42:09;;;;;;;19.07;18.27;;;21.80;99.90;;;;;;5013027;28;20852;-62
2023/10/14 02:47:27;;;;;;;17.57;16.97;;;21.80;99.90;;;;;;5012165;28;20984;-62
2023/10/14 02:50:05;;;;;;;17.90;17.20;;;21.80;99.90;;;;;;5012821;28;20509;-62
2023/10/14 02:52:38;;;;;;;19.03;18.27;;;21.80;99.90;;;;;;5007556;28;20450;-62
2023/10/14 02:55:21;;;;;;;18.60;17.70;;;21.80;99.90;;;;;;5012634;28;20441;-62
2023/10/14 02:57:48;;;;;;;16.60;16.00;;;21.80;99.90;;;;;;5005338;28;20956;-62
2023/10/14 03:00:23;;;;;;;17.87;17.27;;;21.80;99.90;;;;;;5012515;28;20598;-62
2023/10/14 03:02:54;;;;;;;18.60;17.90;;;21.80;99.90;;;;;;5012603;28;20813;-62
2023/10/14 03:05:35;;;;;;;19.13;18.43;;;21.80;99.90;;;;;;5012440;28;20441;-62
2023/10/14 03:08:08;;;;;;;18.20;17.70;;;21.80;99.90;;;;;;5011958;28;20539;-63
2023/10/14 03:10:39;;;;;;;19.60;18.73;;;21.80;99.90;;;;;;5012326;28;20442;-63
2023/10/14 03:13:11;;;;;;;19.00;18.40;;;21.80;99.90;;;;;;5012466;28;20520;-64
2023/10/14 03:15:39;;;;;;;17.47;16.90;;;21.80;99.90;;;;;;5004095;28;20442;-64
2023/10/14 03:18:08;;;;;;;17.00;16.40;;;21.70;99.90;;;;;;5011482;28;20549;-64
2023/10/14 03:20:39;;;;;;;17.87;17.30;;;21.70;99.90;;;;;;5012279;28;20442;-64
2023/10/14 03:23:12;;;;;;;19.53;18.93;;;21.70;99.90;;;;;;5012090;28;20449;-64
2023/10/14 03:25:39;;;;;;;19.07;18.37;;;21.70;99.90;;;;;;5011610;28;20534;-65
2023/10/14 03:28:13;;;;;;;17.43;16.90;;;21.60;99.90;;;;;;5012028;28;20544;-62
2023/10/14 03:30:44;;;;;;;17.70;17.10;;;21.60;99.90;;;;;;5004407;28;20446;-63
2023/10/14 03:33:13;;;;;;;16.60;16.03;;;21.60;99.90;;;;;;5012203;28;20449;-62
2023/10/14 03:35:42;;;;;;;16.43;15.93;;;21.60;99.90;;;;;;5003716;28;20453;-63
2023/10/14 03:38:25;;;;;;;18.03;17.43;;;21.50;99.90;;;;;;5011577;28;20473;-63
2023/10/14 03:41:02;;;;;;;17.43;16.87;;;21.50;99.90;;;;;;5005419;28;20476;-63
2023/10/14 03:43:30;;;;;;;17.73;16.97;;;21.50;99.90;;;;;;5011684;28;20446;-63
2023/10/14 03:46:03;;;;;;;18.23;17.33;;;21.50;99.90;;;;;;5006034;28;20455;-63
2023/10/14 03:48:37;;;;;;;17.83;17.13;;;21.50;99.90;;;;;;5010529;28;21007;-63
2023/10/14 03:51:04;;;;;;;17.70;17.20;;;21.40;99.90;;;;;;5011892;28;20525;-62
2023/10/14 03:53:32;;;;;;;18.07;17.47;;;21.40;99.90;;;;;;5011605;28;20446;-62
2023/10/14 03:56:00;;;;;;;18.07;17.40;;;21.40;99.90;;;;;;5011191;28;20457;-62
2023/10/14 03:58:30;;;;;;;18.13;17.03;;;21.40;99.90;;;;;;5011574;28;20497;-63
2023/10/14 04:00:57;;;;;;;17.30;16.70;;;21.30;99.90;;;;;;5011774;28;20999;-63
2023/10/14 04:03:39;;;;;;;17.13;16.53;;;21.40;99.90;;;;;;5011489;28;20985;-62
2023/10/14 04:06:14;;;;;;;18.50;17.50;;;21.40;99.90;;;;;;5011501;28;20984;-63
2023/10/14 04:08:47;;;;;;;19.07;18.33;;;21.40;99.90;;;;;;5003551;28;21007;-62
2023/10/14 04:11:15;;;;;;;19.83;18.80;;;21.40;99.90;;;;;;5011743;28;20442;-63
2023/10/14 04:13:51;;;;;;;17.93;17.33;;;21.30;99.90;;;;;;5003581;28;20445;-62
2023/10/14 04:16:27;;;;;;;17.30;16.70;;;21.40;99.90;;;;;;5011310;28;20533;-63
2023/10/14 04:18:59;;;;;;;17.17;16.50;;;21.40;99.90;;;;;;5011917;28;20464;-63
2023/10/14 04:21:36;;;;;;;18.33;17.70;;;21.30;99.90;;;;;;5011674;28;20503;-62
2023/10/14 04:24:18;;;;;;;19.77;18.67;;;21.40;99.90;;;;;;5008468;28;20454;-62
2023/10/14 04:26:48;;;;;;;18.63;17.83;;;21.40;99.90;;;;;;5004184;28;20953;-63
2023/10/14 04:29:34;;;;;;;18.30;17.70;;;21.40;99.90;;;;;;5011451;28;20489;-63
2023/10/14 04:32:13;;;;;;;18.87;18.13;;;21.40;99.90;;;;;;5006085;28;20861;-63
2023/10/14 04:34:42;;;;;;;18.67;18.07;;;21.40;99.90;;;;;;5011190;28;20465;-63
2023/10/14 04:37:15;;;;;;;20.80;19.97;;;21.40;99.90;;;;;;5011412;28;20447;-63
2023/10/14 04:39:44;;;;;;;16.87;16.27;;;21.30;99.90;;;;;;5003548;28;20826;-63
2023/10/14 04:42:35;;;;;;;17.37;16.73;;;21.40;99.90;;;;;;5011064;28;20461;-62
2023/10/14 04:45:04;;;;;;;18.43;17.83;;;21.40;99.90;;;;;;5005829;28;20533;-63
2023/10/14 04:47:36;;;;;;;18.03;17.30;;;21.40;99.90;;;;;;5011340;28;20485;-63
2023/10/14 04:50:10;;;;;;;18.27;17.67;;;21.40;99.90;;;;;;5011812;28;20438;-62
2023/10/14 04:52:39;;;;;;;18.33;17.53;;;21.40;99.90;;;;;;5014224;28;20453;-63
2023/10/14 04:55:25;;;;;;;19.73;19.00;;;21.50;99.90;;;;;;5014815;28;20517;-62
2023/10/14 04:58:08;;;;;;;18.50;17.70;;;21.50;99.90;;;;;;5008111;28;20441;-63
2023/10/14 05:00:42;;;;;;;18.50;17.50;;;21.50;99.90;;;;;;5014845;28;20450;-65
2023/10/14 05:03:09;;;;;;;15.73;15.00;;;21.40;99.90;;;;;;5013843;28;20488;-67
2023/10/14 05:05:38;;;;;;;17.07;16.37;;;21.50;99.90;;;;;;5014606;28;20520;-65
2023/10/14 05:08:12;;;;;;;18.00;16.70;;;21.60;99.90;;;;;;5014612;28;20486;-65
2023/10/14 05:10:41;;;;;;;17.33;15.97;;;21.60;99.90;;;;;;5014538;28;20838;-65
2023/10/14 05:13:12;;;;;;;18.30;17.27;;;21.60;99.90;;;;;;5013928;28;20453;-65
2023/10/14 05:15:43;;;;;;;18.13;16.80;;;21.70;99.90;;;;;;5011551;28;20513;-65
2023/10/14 05:18:16;;;;;;;20.90;19.40;;;21.70;99.90;;;;;;5010104;28;20490;-64
2023/10/14 05:20:59;;;;;;;20.57;19.10;;;21.70;99.90;;;;;;5006413;28;20453;-65
2023/10/14 05:23:31;;;;;;;21.63;19.63;;;21.70;99.90;;;;;;5013913;28;20545;-65
2023/10/14 05:25:59;;;;;;;22.50;20.73;;;21.80;99.90;;;;;;5014391;28;20450;-65
2023/10/14 05:28:31;;;;;;;20.60;19.20;;;21.80;99.90;;;;;;5013900;28;20485;-68
2023/10/14 05:31:00;;;;;;;20.57;19.43;;;21.80;99.90;;;;;;5014137;28;20450;-67
2023/10/14 05:33:28;;;;;;;21.70;19.80;;;21.80;99.90;;;;;;5006463;28;20528;-69
2023/10/14 05:35:57;;;;;;;18.00;16.60;;;21.70;99.90;;;;;;5013989;28;20972;-66
2023/10/14 05:38:24;;;;;;;17.00;15.93;;;21.70;99.90;;;;;;5014034;28;20466;-68
2023/10/14 05:40:55;;;;;;;18.40;17.40;;;21.70;99.90;;;;;;5014013;28;20500;-68
2023/10/14 05:43:23;;;;;;;17.37;16.37;;;21.70;99.90;;;;;;5013432;28;20466;-69
2023/10/14 05:45:51;;;;;;;16.97;16.27;;;21.70;99.90;;;;;;5013911;28;20442;-71
2023/10/14 05:48:26;;;;;;;17.57;16.37;;;21.70;99.90;;;;;;5013860;28;20529;-69
2023/10/14 05:50:56;;;;;;;16.80;16.10;;;21.70;99.90;;;;;;5007425;28;20442;-66
2023/10/14 05:53:24;;;;;;;17.33;16.50;;;21.70;99.90;;;;;;5013841;28;20489;-70
2023/10/14 05:56:09;;;;;;;17.27;16.30;;;21.70;99.90;;;;;;5014528;28;20476;-67
2023/10/14 05:58:38;;;;;;;16.50;15.77;;;21.70;99.80;;;;;;5014081;28;20520;-67
2023/10/14 06:01:10;;;;;;;17.50;16.80;;;21.70;99.70;;;;;;5014255;28;20540;-67
2023/10/14 06:03:37;;;;;;;18.93;18.13;;;21.70;99.30;;;;;;5012929;28;20454;-69
2023/10/14 06:06:09;;;;;;;19.57;18.60;;;21.60;98.60;;;;;;5014310;28;20853;-68
2023/10/14 06:08:37;;;;;;;20.00;18.77;;;21.70;99.00;;;;;;5014200;28;20517;-66
2023/10/14 06:11:06;;;;;;;19.87;18.90;;;21.70;98.50;;;;;;5014179;28;20470;-68
2023/10/14 06:13:33;;;;;;;19.10;18.40;;;21.70;98.60;;;;;;5013111;28;20462;-65
2023/10/14 06:16:04;;;;;;;18.43;17.43;;;21.70;98.00;;;;;;5013807;28;20454;-65
2023/10/14 06:18:31;;;;;;;19.13;18.40;;;21.70;97.40;;;;;;5013866;28;20895;-66
2023/10/14 06:21:00;;;;;;;19.70;18.80;;;21.70;97.30;;;;;;5013886;28;20820;-69
2023/10/14 06:23:27;;;;;;;20.23;19.33;;;21.70;96.70;;;;;;5013391;28;20524;-69
2023/10/14 06:25:54;;;;;;;19.63;18.83;;;21.70;96.60;;;;;;5013264;28;20442;-69
2023/10/14 06:28:23;;;;;;;17.93;17.13;;;21.70;96.00;;;;;;5012869;28;20497;-68
2023/10/14 06:30:50;;;;;;;20.57;19.77;;;21.70;95.60;;;;;;5013303;28;20921;-66
2023/10/14 06:33:17;;;;;;;20.97;19.80;;;21.70;95.70;;;;;;5013053;28;20486;-65
2023/10/14 06:35:44;;;;;;;19.67;19.07;;;21.60;95.70;;;;;;5011946;28;20474;-66
2023/10/14 06:38:17;;;;;;;19.40;18.40;;;21.70;95.90;;;;;;5008734;28;20477;-67
2023/10/14 06:40:44;;;;;;;19.03;18.20;;;21.70;95.60;;;;;;5012593;28;21011;-67
2023/10/14 06:43:13;;;;;;;20.50;19.70;;;21.60;94.90;;;;;;5013080;28;20446;-67
2023/10/14 06:45:41;;;;;;;19.73;18.73;;;21.50;94.70;;;;;;5012457;28;20496;-67
2023/10/14 06:48:10;;;;;;;19.77;18.87;;;21.50;95.00;;;;;;5012582;28;20473;-67
2023/10/14 06:50:38;;;;;;;19.73;19.00;;;21.40;94.80;;;;;;5012438;28;20875;-67
2023/10/14 06:53:08;;;;;;;19.73;18.87;;;21.30;94.80;;;;;;5012490;28;20448;-67
2023/10/14 06:55:39;;;;;;;20.53;19.73;;;21.30;94.80;;;;;;5012404;28;20529;-67
2023/10/14 06:58:07;;;;;;;20.73;19.83;;;21.30;94.90;;;;;;5012334;28;20480;-67
2023/10/14 07:00:37;;;;;;;19.10;18.20;;;21.20;94.50;;;;;;5012298;28;20453;-66
2023/10/14 07:03:07;;;;;;;20.07;19.30;;;21.20;94.60;;;;;;5012431;28;20504;-66
2023/10/14 07:05:43;;;;;;;20.10;19.10;;;21.10;94.50;;;;;;5012142;28;20453;-68
2023/10/14 07:08:11;;;;;;;19.57;18.87;;;21.10;94.40;;;;;;5012139;28;20497;-67
2023/10/14 07:10:38;;;;;;;18.97;18.13;;;21.00;93.70;;;;;;5012256;28;20477;-67
2023/10/14 07:13:06;;;;;;;20.07;19.17;;;21.00;94.00;;;;;;5012162;28;20474;-68
2023/10/14 07:15:37;;;;;;;20.70;19.50;;;21.00;94.10;;;;;;5011964;28;20926;-67
2023/10/14 07:18:08;;;;;;;20.53;19.63;;;21.00;94.00;;;;;;5012029;28;20486;-67
2023/10/14 07:20:35;;;;;;;19.47;18.70;;;20.90;93.80;;;;;;5012223;28;20533;-67
2023/10/14 07:23:03;;;;;;;20.80;19.77;;;20.90;93.70;;;;;;5012104;28;20469;-67
2023/10/14 07:25:33;;;;;;;19.43;18.73;;;20.80;93.70;;;;;;5011849;28;20446;-65
2023/10/14 07:28:01;;;;;;;19.77;18.97;;;20.80;93.60;;;;;;5010320;28;20488;-69
2023/10/14 07:30:28;;;;;;;20.30;18.93;;;20.80;93.80;;;;;;5009388;28;20481;-70
2023/10/14 07:32:56;;;;;;;19.40;18.53;;;20.80;94.40;;;;;;5012123;28;20450;-71
2023/10/14 07:35:25;;;;;;;19.30;18.60;;;20.90;95.40;;;;;;5011861;28;21008;-69
2023/10/14 07:37:52;;;;;;;21.30;20.50;;;20.90;95.00;;;;;;5011211;28;20963;-67
2023/10/14 07:40:29;;;;;;;21.60;20.50;;;21.00;95.00;;;;;;5012034;28;20883;-65
2023/10/14 07:42:59;;;;;;;24.37;22.93;;;21.00;94.40;;;;;;5004818;28;20449;-67
2023/10/14 07:45:29;;;;;;;21.30;20.40;;;21.00;93.90;;;;;;5005681;28;20448;-65
2023/10/14 07:47:57;;;;;;;20.33;19.53;;;21.00;93.50;;;;;;5011836;28;20445;-66
2023/10/14 07:50:31;;;;;;;20.83;19.93;;;20.90;93.80;;;;;;5011749;28;20485;-64
2023/10/14 07:53:07;;;;;;;20.90;20.10;;;21.00;93.80;;;;;;5011689;28;20449;-65
2023/10/14 07:55:35;;;;;;;20.50;19.70;;;20.90;93.60;;;;;;5011160;28;20445;-65
2023/10/14 07:58:04;;;;;;;20.70;19.80;;;20.90;93.60;;;;;;5011628;28;20458;-65
2023/10/14 08:00:37;;;;;;;20.50;19.67;;;20.90;93.60;;;;;;5011467;28;20446;-65
2023/10/14 08:03:06;;;;;;;21.23;20.30;;;20.90;93.50;;;;;;5011431;28;20438;-65
2023/10/14 08:05:38;;;;;;;21.47;20.43;;;20.90;93.50;;;;;;5011184;28;20452;-65
2023/10/14 08:08:07;;;;;;;20.50;19.63;;;20.90;93.60;;;;;;5011627;28;21000;-66
2023/10/14 08:10:34;;;;;;;19.30;18.70;;;20.80;93.40;;;;;;5011460;28;20509;-65
2023/10/14 08:13:04;;;;;;;19.83;19.23;;;20.90;93.50;;;;;;5011449;28;20500;-65
2023/10/14 08:15:31;;;;;;;21.60;20.80;;;20.80;93.30;;;;;;5011211;28;20445;-65
2023/10/14 08:18:00;;;;;;;20.90;20.00;;;20.90;93.30;;;;;;5011404;28;20469;-65
2023/10/14 08:20:28;;;;;;;20.90;20.00;;;20.80;93.20;;;;;;5011401;28;20500;-65
2023/10/14 08:22:56;;;;;;;21.30;20.40;;;20.80;93.20;;;;;;5011281;28;20442;-65
2023/10/14 08:25:25;;;;;;;20.30;19.60;;;20.80;93.20;;;;;;5012382;28;20934;-65
2023/10/14 08:27:53;;;;;;;20.90;20.00;;;20.80;93.10;;;;;;5015113;28;20508;-66
2023/10/14 08:30:24;;;;;;;22.97;20.90;;;20.80;93.10;;;;;;5015218;28;20853;-65
2023/10/14 08:32:52;;;;;;;20.80;19.77;;;20.80;93.00;;;;;;5015100;28;20445;-65
2023/10/14 08:35:27;;;;;;;21.20;20.30;;;20.80;92.60;;;;;;5015094;28;20976;-65
2023/10/14 08:37:57;;;;;;;20.93;20.03;;;20.70;92.70;;;;;;5007260;28;20471;-65
2023/10/14 08:40:26;;;;;;;21.20;19.80;;;20.70;92.80;;;;;;5015136;28;20470;-65
2023/10/14 08:42:55;;;;;;;21.33;20.53;;;20.70;92.70;;;;;;5007112;28;20453;-65
2023/10/14 08:45:25;;;;;;;21.27;20.17;;;20.70;92.60;;;;;;5014778;28;20474;-65
2023/10/14 08:47:54;;;;;;;21.27;20.37;;;20.70;92.30;;;;;;5006950;28;20540;-65
2023/10/14 08:50:24;;;;;;;20.27;19.20;;;20.70;92.40;;;;;;5014814;28;20859;-65
2023/10/14 08:52:53;;;;;;;22.97;21.67;;;20.70;92.30;;;;;;5014823;28;20525;-65
2023/10/14 08:55:22;;;;;;;20.77;19.87;;;20.70;92.40;;;;;;5014521;28;20453;-66
2023/10/14 08:57:50;;;;;;;21.40;20.70;;;20.70;92.60;;;;;;5014609;28;20442;-65
2023/10/14 09:00:20;;;;;;;20.27;19.57;;;20.70;92.30;;;;;;5014916;28;20450;-65
2023/10/14 09:02:51;;;;;;;19.97;19.17;;;20.70;92.00;;;;;;5014889;28;20521;-65
2023/10/14 09:05:19;;;;;;;20.90;19.80;;;20.70;91.80;;;;;;5014470;28;20473;-65
2023/10/14 09:07:48;;;;;;;20.33;19.43;;;20.60;91.50;;;;;;5014481;28;20858;-66
2023/10/14 09:10:18;;;;;;;20.97;20.17;;;20.70;91.60;;;;;;5014456;28;21008;-66
2023/10/14 09:13:03;;;;;;;20.50;19.50;;;20.60;91.60;;;;;;5014500;28;20858;-65
2023/10/14 09:15:32;;;;;;;20.40;19.10;;;20.60;91.70;;;;;;5014077;28;20503;-65
2023/10/14 09:18:00;;;;;;;19.60;18.80;;;20.60;91.30;;;;;;5014380;28;22456;-65
2023/10/14 09:20:30;;;;;;;21.17;20.13;;;20.60;91.20;;;;;;5014305;28;20465;-65
2023/10/14 09:23:17;;;;;;;19.97;18.80;;;20.60;91.20;;;;;;5007088;28;20438;-65
2023/10/14 09:25:45;;;;;;;21.60;20.70;;;20.60;91.10;;;;;;5013965;28;20493;-65
2023/10/14 09:28:16;;;;;;;20.17;19.27;;;20.60;90.80;;;;;;5013989;28;20489;-65
2023/10/14 09:30:46;;;;;;;20.10;19.20;;;20.60;90.80;;;;;;5014053;28;20560;-66
2023/10/14 09:33:16;;;;;;;20.30;19.60;;;20.50;90.70;;;;;;5014047;28;20984;-66
2023/10/14 09:35:51;;;;;;;21.27;20.47;;;20.50;90.60;;;;;;5013890;28;20458;-66
2023/10/14 09:38:21;;;;;;;21.20;20.10;;;20.50;90.40;;;;;;5012774;28;21000;-66
2023/10/14 09:40:53;;;;;;;21.43;20.43;;;20.50;90.20;;;;;;5013845;28;20453;-66
2023/10/14 09:43:24;;;;;;;21.20;20.20;;;20.50;90.40;;;;;;5013926;28;20477;-65
2023/10/14 09:45:55;;;;;;;20.07;19.33;;;20.50;90.20;;;;;;5013395;28;20861;-64
2023/10/14 09:48:24;;;;;;;21.03;20.20;;;20.50;90.00;;;;;;5013951;28;20841;-65
2023/10/14 09:50:54;;;;;;;21.00;20.20;;;20.50;89.30;;;;;;5013537;28;20477;-65
2023/10/14 09:53:26;;;;;;;20.90;20.20;;;20.50;89.00;;;;;;5013695;28;20468;-65
2023/10/14 09:55:54;;;;;;;20.40;19.50;;;20.40;87.60;;;;;;5013411;28;20529;-65
2023/10/14 09:58:25;;;;;;;21.10;20.20;;;20.40;87.60;;;;;;5013651;28;20545;-65
2023/10/14 10:00:53;;;;;;;20.57;19.53;;;20.40;87.60;;;;;;5013465;28;20445;-66
2023/10/14 10:03:21;;;;;;;20.00;19.00;;;20.50;87.90;;;;;;5013482;28;20474;-65
2023/10/14 10:06:13;;;;;;;22.03;21.13;;;20.40;87.30;;;;;;5013249;28;20861;-65
2023/10/14 10:09:05;;;;;;;19.97;18.53;;;20.40;86.50;;;;;;5013310;28;21001;-65
2023/10/14 10:11:36;;;;;;;19.77;18.83;;;20.40;86.60;;;;;;4995078;28;20486;-65
2023/10/14 10:14:11;;;;;;;19.50;18.57;;;20.40;86.50;;;;;;5013375;28;20526;-66
2023/10/14 10:16:38;;;;;;;19.90;18.90;;;20.40;86.40;;;;;;5013283;28;20445;-65
2023/10/14 10:19:05;;;;;;;20.20;19.13;;;20.40;85.50;;;;;;5013178;28;20501;-66
2023/10/14 10:21:40;;;;;;;19.13;18.27;;;20.40;85.40;;;;;;5012958;28;20942;-66
2023/10/14 10:24:20;;;;;;;19.20;18.17;;;20.30;85.00;;;;;;5012946;28;20531;-65
2023/10/14 10:27:05;;;;;;;19.07;18.17;;;20.30;85.20;;;;;;5013226;28;20453;-65
2023/10/14 10:29:34;;;;;;;20.37;19.10;;;20.30;85.00;;;;;;5012719;28;20988;-65
2023/10/14 10:32:08;;;;;;;20.63;19.33;;;20.30;84.80;;;;;;5012970;28;20501;-66
2023/10/14 10:34:55;;;;;;;20.60;19.70;;;20.30;85.10;;;;;;5012713;28;20790;-66
2023/10/14 10:37:27;;;;;;;22.00;20.80;;;20.40;85.40;;;;;;5012897;28;20473;-65
2023/10/14 10:39:55;;;;;;;20.87;20.17;;;20.40;85.60;;;;;;5012721;28;20465;-65
2023/10/14 10:42:22;;;;;;;20.60;19.70;;;20.40;85.40;;;;;;5012911;28;20442;-65
2023/10/14 10:44:50;;;;;;;20.67;19.80;;;20.30;85.20;;;;;;5012415;28;20441;-65
2023/10/14 10:47:17;;;;;;;21.03;19.50;;;20.30;85.10;;;;;;5012828;28;20465;-65
2023/10/14 10:49:59;;;;;;;21.20;20.30;;;20.30;84.50;;;;;;5012120;28;20512;-66
2023/10/14 10:52:27;;;;;;;21.53;20.10;;;20.30;83.80;;;;;;5012675;28;20478;-65
2023/10/14 10:54:55;;;;;;;21.33;20.20;;;20.30;83.80;;;;;;5012300;28;20846;-66
2023/10/14 10:57:22;;;;;;;22.07;21.07;;;20.30;83.40;;;;;;5012794;28;20454;-65
2023/10/14 10:59:51;;;;;;;22.33;21.33;;;20.30;83.90;;;;;;5012381;28;20457;-66
2023/10/14 11:02:19;;;;;;;20.53;19.73;;;20.30;83.60;;;;;;5012373;28;20465;-66
2023/10/14 11:04:48;;;;;;;21.10;20.20;;;20.30;82.40;;;;;;5012205;28;20442;-66
2023/10/14 11:07:15;;;;;;;20.40;19.60;;;20.30;81.90;;;;;;5012462;28;20500;-66
2023/10/14 11:09:42;;;;;;;20.40;19.20;;;20.30;81.40;;;;;;5012064;28;20969;-65
2023/10/14 11:12:09;;;;;;;22.13;20.80;;;20.30;81.30;;;;;;5012303;28;20474;-65
2023/10/14 11:14:36;;;;;;;20.53;19.63;;;20.30;81.00;;;;;;5011954;28;20442;-65
2023/10/14 11:17:05;;;;;;;20.90;19.77;;;20.30;80.10;;;;;;5012156;28;20465;-66
2023/10/14 11:19:33;;;;;;;22.17;20.97;;;20.30;80.10;;;;;;5011954;28;20845;-65
2023/10/14 11:22:01;;;;;;;20.60;19.90;;;20.30;78.90;;;;;;5012126;28;20477;-66
2023/10/14 11:24:30;;;;;;;20.43;19.57;;;20.30;78.50;;;;;;5011992;28;20500;-66
2023/10/14 11:27:01;;;;;;;20.90;20.10;;;20.30;77.90;;;;;;5003896;28;20452;-65
2023/10/14 11:29:33;;;;;;;21.10;20.37;;;20.30;78.00;;;;;;5011896;28;20529;-65
2023/10/14 11:32:02;;;;;;;21.20;20.37;;;20.30;78.00;;;;;;5004369;28;20516;-66
2023/10/14 11:34:36;;;;;;;21.00;20.20;;;20.30;78.60;;;;;;5011797;28;20446;-64
2023/10/14 11:37:03;;;;;;;19.83;19.13;;;20.30;78.60;;;;;;5004433;28;20469;-65
2023/10/14 11:39:32;;;;;;;20.93;19.90;;;20.30;77.90;;;;;;5011801;28;20985;-65
2023/10/14 11:42:01;;;;;;;20.97;20.10;;;20.30;77.40;;;;;;5003800;28;20533;-64
2023/10/14 11:44:29;;;;;;;22.07;20.97;;;20.30;76.90;;;;;;5011757;28;20519;-66
2023/10/14 11:46:59;;;;;;;21.03;20.17;;;20.30;75.90;;;;;;5011552;28;20466;-72
2023/10/14 11:49:27;;;;;;;21.17;20.17;;;20.30;76.50;;;;;;5011768;28;20461;-71
2023/10/14 11:51:55;;;;;;;21.70;20.80;;;20.30;73.60;;;;;;5011470;28;20567;-68
2023/10/14 11:54:24;;;;;;;21.03;20.13;;;20.30;75.50;;;;;;5011537;28;20496;-71
2023/10/14 11:56:51;;;;;;;21.90;21.00;;;20.30;74.00;;;;;;5011557;28;20981;-71
2023/10/14 11:59:18;;;;;;;22.37;20.53;;;20.30;73.40;;;;;;5011139;28;20466;-70
2023/10/14 12:01:46;;;;;;;22.73;21.60;;;20.30;73.10;;;;;;5011133;28;20950;-71
2023/10/14 12:04:14;;;;;;;21.63;20.80;;;20.30;72.60;;;;;;5011445;28;20445;-71
2023/10/14 12:06:41;;;;;;;21.00;20.20;;;20.30;72.40;;;;;;5011512;28;20930;-71
2023/10/14 12:09:10;;;;;;;21.33;20.37;;;20.30;70.20;;;;;;5011540;28;20868;-70
2023/10/14 12:11:41;;;;;;;20.00;19.07;;;20.30;69.30;;;;;;5011407;28;20509;-70
2023/10/14 12:14:10;;;;;;;20.23;19.47;;;20.30;68.50;;;;;;5012055;28;20512;-70
2023/10/14 12:16:37;;;;;;;20.30;19.47;;;20.30;67.20;;;;;;5011476;28;20803;-70
2023/10/14 12:19:05;;;;;;;20.33;19.10;;;20.30;67.10;;;;;;5011562;28;20504;-69
2023/10/14 12:21:32;;;;;;;20.50;19.60;;;20.30;66.90;;;;;;5011478;28;20447;-70
2023/10/14 12:24:02;;;;;;;22.10;21.00;;;20.30;67.40;;;;;;5011304;28;20865;-69
2023/10/14 12:26:33;;;;;;;22.67;21.57;;;20.30;67.50;;;;;;5011246;28;20446;-69
2023/10/14 12:29:07;;;;;;;19.70;19.03;;;20.30;65.60;;;;;;5003206;28;21121;-69
2023/10/14 12:31:38;;;;;;;21.40;20.10;;;20.40;65.40;;;;;;5011737;28;20497;-69
2023/10/14 12:34:07;;;;;;;20.20;19.33;;;20.30;65.40;;;;;;5004602;28;20458;-72
2023/10/14 12:36:34;;;;;;;21.20;20.40;;;20.40;64.30;;;;;;5012259;28;20474;-70
2023/10/14 12:39:09;;;;;;;20.97;19.90;;;20.40;64.40;;;;;;5004168;28;20551;-72
2023/10/14 12:41:40;;;;;;;20.03;19.13;;;20.40;64.30;;;;;;5012122;28;20867;-70
2023/10/14 12:44:13;;;;;;;20.67;19.77;;;20.40;64.30;;;;;;5012626;28;20872;-72
2023/10/14 12:46:40;;;;;;;21.40;20.60;;;20.50;65.10;;;;;;5012460;28;20836;-72
2023/10/14 12:49:10;;;;;;;21.80;20.90;;;20.50;62.30;;;;;;5012355;28;20543;-73